WetterOnline ( https://www.wetteronline.de )

Wetter aktuell Feldberger Seenlandschaft

Aktuelles Wetter: Feldberg (115m)

6-stündlich | Neueste Meldungen
Ortszeit Temperatur Wetter
So, 25.08. 20:00 25.6° C fast wolkenlos
So, 25.08. 14:00 29.4° C wolkenlos
So, 25.08. 8:00 18.2° C leicht bewölkt
So, 25.08. 2:00 16.9° C fast wolkenlos
Sa, 24.08. 20:00 23.7° C fast wolkenlos
Sa, 24.08. 14:00 27.0° C fast wolkenlos
Sa, 24.08. 8:00 18.0° C fast wolkenlos
Sa, 24.08. 2:00 13.5° C fast wolkenlos
Ortszeit Temperatur Wetter
Mo, 26.08. 1:30 19.0° C leicht bewölkt
Mo, 26.08. 1:20 19.0° C leicht bewölkt
Mo, 26.08. 1:10 19.3° C leicht bewölkt
Mo, 26.08. 1:00 19.7° C fast wolkenlos
Mo, 26.08. 0:50 19.7° C fast wolkenlos
Mo, 26.08. 0:40 19.8° C wolkenlos
Mo, 26.08. 0:30 20.3° C wolkenlos
Mo, 26.08. 0:00 20.3° C leicht bewölkt
So, 25.08. 23:30 20.5° C fast wolkenlos
So, 25.08. 23:00 21.0° C wolkenlos
So, 25.08. 22:30 22.0° C fast wolkenlos
So, 25.08. 22:00 22.9° C wolkenlos
Ortszeit Relative Feuchte Sichtweite
So, 25.08. 20:00 43% 30 km
So, 25.08. 14:00 38% 29 km
So, 25.08. 8:00 64% 24 km
So, 25.08. 2:00 76% 21 km
Sa, 24.08. 20:00 51% 29 km
Sa, 24.08. 14:00 36% 29 km
Sa, 24.08. 8:00 76% 18 km
Sa, 24.08. 2:00 88% 19 km
Ortszeit Relative Feuchte Sichtweite
Mo, 26.08. 1:30 63% 25 km
Mo, 26.08. 1:20 63% -
Mo, 26.08. 1:10 62% -
Mo, 26.08. 1:00 60% 27 km
Mo, 26.08. 0:50 60% -
Mo, 26.08. 0:40 60% -
Mo, 26.08. 0:30 58% 27 km
Mo, 26.08. 0:00 59% 27 km
So, 25.08. 23:30 59% 30 km
So, 25.08. 23:00 58% 28 km
So, 25.08. 22:30 55% 27 km
So, 25.08. 22:00 51% 35 km
Ortszeit Niederschlagsmenge Niederschlagsart
So, 25.08. 20:00 0.0 l/m2 in 12 Std. -
So, 25.08. 14:00 0.0 l/m2 in 6 Std. -
So, 25.08. 8:00 0.0 l/m2 in 12 Std. -
So, 25.08. 2:00 0.0 l/m2 in 6 Std. -
Sa, 24.08. 20:00 0.0 l/m2 in 12 Std. -
Sa, 24.08. 14:00 0.0 l/m2 in 6 Std. -
Sa, 24.08. 8:00 0.0 l/m2 in 12 Std. -
Sa, 24.08. 2:00 0.0 l/m2 in 6 Std. -
Ortszeit Niederschlagsmenge Niederschlagsart
Mo, 26.08. 1:30 0.0 l/m2 in 1 Std. -
Mo, 26.08. 1:20 keine Meldung -
Mo, 26.08. 1:10 keine Meldung -
Mo, 26.08. 1:00 0.0 l/m2 in 1 Std. -
Mo, 26.08. 0:50 keine Meldung -
Mo, 26.08. 0:40 keine Meldung -
Mo, 26.08. 0:30 0.0 l/m2 in 1 Std. -
Mo, 26.08. 0:00 0.0 l/m2 in 1 Std. -
So, 25.08. 23:30 0.0 l/m2 in 1 Std. -
So, 25.08. 23:00 0.0 l/m2 in 1 Std. -
So, 25.08. 22:30 0.0 l/m2 in 1 Std. -
So, 25.08. 22:00 0.0 l/m2 in 1 Std. -
Ortszeit Stärke Spitze Richtung
km/h Bft. km/h Grad Sektor
So, 25.08. 20:00 9 2 31 60° NO
So, 25.08. 14:00 13 3 31 110° O
So, 25.08. 8:00 11 2 22 70° O
So, 25.08. 2:00 7 2 22 60° NO
Sa, 24.08. 20:00 14 3 32 50° NO
Sa, 24.08. 14:00 13 3 28 130° SO
Sa, 24.08. 8:00 4 1 7 360° N
Sa, 24.08. 2:00 6 1 19 50° NO
Ortszeit Stärke Spitze Richtung
km/h Bft. km/h Grad Sektor
Mo, 26.08. 1:30 6 1 9 90° O
Mo, 26.08. 1:20 6 1 - 90° O
Mo, 26.08. 1:10 7 2 - 100° O
Mo, 26.08. 1:00 7 2 15 90° O
Mo, 26.08. 0:50 7 2 - 90° O
Mo, 26.08. 0:40 7 2 - 90° O
Mo, 26.08. 0:30 9 2 15 80° O
Mo, 26.08. 0:00 7 2 11 90° O
So, 25.08. 23:30 7 2 11 90° O
So, 25.08. 23:00 7 2 14 90° O
So, 25.08. 22:30 9 2 15 90° O
So, 25.08. 22:00 9 2 15 80° O
Ortszeit Untergrenze Bedeckung Gattung
total tief tief mittel hoch
So, 25.08. 20:00 8400 m 1/8 0/8 - - -
So, 25.08. 14:00 - 0/8 0/8 - - -
So, 25.08. 8:00 8400 m 4/8 0/8 - - -
So, 25.08. 2:00 8100 m 1/8 0/8 - - -
Sa, 24.08. 20:00 7500 m 2/8 0/8 - - -
Sa, 24.08. 14:00 8700 m 1/8 0/8 - - -
Sa, 24.08. 8:00 7500 m 2/8 0/8 - - -
Sa, 24.08. 2:00 8400 m 1/8 0/8 - - -
Ortszeit Bedeckungsgrad in Achtel und Wolkenuntergrenze
Mo, 26.08. 1:30 6(8400m)
Mo, 26.08. 1:20 6(8400m)
Mo, 26.08. 1:10 5(8100m)
Mo, 26.08. 1:00 1(7800m)
Mo, 26.08. 0:50 1(7800m)
Mo, 26.08. 0:40 keine Wolken
Mo, 26.08. 0:30 keine Wolken
Mo, 26.08. 0:00 3(8400m)
So, 25.08. 23:30 1(9000m)
So, 25.08. 23:00 keine Wolken
So, 25.08. 22:30 1(8400m) 2(9000m)
So, 25.08. 22:00 keine Wolken
Ortszeit Luftdruck NN (hPa) Tendenz (hPa in 3 Std.)
So, 25.08. 20:00 1021 + 0,4
So, 25.08. 14:00 1021 - 1,1
So, 25.08. 8:00 1023 0,0
So, 25.08. 2:00 1023 - 0,1
Sa, 24.08. 20:00 1023 - 0,5
Sa, 24.08. 14:00 1024 - 1,4
Sa, 24.08. 8:00 1026 + 0,1
Sa, 24.08. 2:00 1026 0,0
Ortszeit Luftdruck NN (hPa) Tendenz (hPa in 3 Std.)
Mo, 26.08. 1:30 1022 - 0,4
Mo, 26.08. 1:20 1022 keine Meldung
Mo, 26.08. 1:10 1022 keine Meldung
Mo, 26.08. 1:00 1022 - 0,3
Mo, 26.08. 0:50 1022 keine Meldung
Mo, 26.08. 0:40 1022 keine Meldung
Mo, 26.08. 0:30 1022 + 0,1
Mo, 26.08. 0:00 1022 + 0,5
So, 25.08. 23:30 1022 + 0,8
So, 25.08. 23:00 1023 + 1,3
So, 25.08. 22:30 1022 + 1,4
So, 25.08. 22:00 1022 + 1,4
Ortszeit Schneehöhe (cm)
So, 25.08. 20:00 -
So, 25.08. 14:00 -
So, 25.08. 8:00 -
So, 25.08. 2:00 -
Sa, 24.08. 20:00 -
Sa, 24.08. 14:00 -
Sa, 24.08. 8:00 -
Sa, 24.08. 2:00 -
Ortszeit Schneehöhe (cm)
Mo, 26.08. 1:30 -
Mo, 26.08. 1:20 -
Mo, 26.08. 1:10 -
Mo, 26.08. 1:00 -
Mo, 26.08. 0:50 -
Mo, 26.08. 0:40 -
Mo, 26.08. 0:30 -
Mo, 26.08. 0:00 -
So, 25.08. 23:30 -
So, 25.08. 23:00 -
So, 25.08. 22:30 -
So, 25.08. 22:00 -
Link zu dieser Seite / Seite empfehlen

Das Wetter in ...